sensor_id;sensor_type;location;lat;lon;timestamp;pressure;altitude;pressure_sealevel;temperature;humidity
21980;BME280;11154;48.558;9.234;2023-02-25T00:01:10;96367.22;;;10.06;78.66
21980;BME280;11154;48.558;9.234;2023-02-25T00:03:12;96392.94;;;10.05;77.74
21980;BME280;11154;48.558;9.234;2023-02-25T00:05:15;96390.69;;;10.02;78.13
21980;BME280;11154;48.558;9.234;2023-02-25T00:07:17;96401.94;;;10.04;77.51
21980;BME280;11154;48.558;9.234;2023-02-25T00:09:19;96395.59;;;10.05;77.49
21980;BME280;11154;48.558;9.234;2023-02-25T00:11:22;96391.94;;;10.06;78.00
21980;BME280;11154;48.558;9.234;2023-02-25T00:13:26;96398.72;;;10.08;79.11
21980;BME280;11154;48.558;9.234;2023-02-25T00:15:28;96400.34;;;10.09;79.14
21980;BME280;11154;48.558;9.234;2023-02-25T00:17:30;96395.88;;;10.10;77.99
21980;BME280;11154;48.558;9.234;2023-02-25T00:19:31;96398.53;;;10.10;78.89
21980;BME280;11154;48.558;9.234;2023-02-25T00:21:33;96394.25;;;10.09;79.02
21980;BME280;11154;48.558;9.234;2023-02-25T00:23:34;96396.69;;;10.10;79.60
21980;BME280;11154;48.558;9.234;2023-02-25T00:25:36;96399.53;;;10.09;78.53
21980;BME280;11154;48.558;9.234;2023-02-25T00:27:38;96402.81;;;10.11;78.59
21980;BME280;11154;48.558;9.234;2023-02-25T00:29:41;96398.34;;;10.11;79.01
21980;BME280;11154;48.558;9.234;2023-02-25T00:31:43;96403.66;;;10.11;79.81
21980;BME280;11154;48.558;9.234;2023-02-25T00:33:45;96408.97;;;10.11;79.13
21980;BME280;11154;48.558;9.234;2023-02-25T00:35:47;96412.81;;;10.09;78.92
21980;BME280;11154;48.558;9.234;2023-02-25T00:37:50;96422.44;;;10.10;78.86
21980;BME280;11154;48.558;9.234;2023-02-25T00:39:52;96415.09;;;10.12;78.41
21980;BME280;11154;48.558;9.234;2023-02-25T00:41:53;96414.66;;;10.08;78.05
21980;BME280;11154;48.558;9.234;2023-02-25T00:43:57;96415.28;;;10.10;77.78
21980;BME280;11154;48.558;9.234;2023-02-25T00:46:00;96408.97;;;10.11;78.16
21980;BME280;11154;48.558;9.234;2023-02-25T00:48:02;96402.81;;;10.11;78.55
21980;BME280;11154;48.558;9.234;2023-02-25T00:50:05;96398.91;;;10.07;78.01
21980;BME280;11154;48.558;9.234;2023-02-25T00:52:08;96399.28;;;10.04;76.76
21980;BME280;11154;48.558;9.234;2023-02-25T00:54:10;96390.88;;;10.01;77.16
21980;BME280;11154;48.558;9.234;2023-02-25T00:56:13;96387.56;;;9.99;77.59
21980;BME280;11154;48.558;9.234;2023-02-25T00:58:15;96403.00;;;9.95;76.62
21980;BME280;11154;48.558;9.234;2023-02-25T01:00:18;96408.66;;;9.92;77.07
21980;BME280;11154;48.558;9.234;2023-02-25T01:02:21;96418.03;;;9.88;77.31
21980;BME280;11154;48.558;9.234;2023-02-25T01:04:23;96421.34;;;9.90;78.29
21980;BME280;11154;48.558;9.234;2023-02-25T01:06:26;96417.56;;;9.85;78.26
21980;BME280;11154;48.558;9.234;2023-02-25T01:08:28;96412.25;;;9.85;78.92
21980;BME280;11154;48.558;9.234;2023-02-25T01:10:30;96415.09;;;9.83;79.28
21980;BME280;11154;48.558;9.234;2023-02-25T01:12:32;96417.88;;;10.04;85.91
21980;BME280;11154;48.558;9.234;2023-02-25T01:14:34;96408.41;;;10.02;83.23
21980;BME280;11154;48.558;9.234;2023-02-25T01:16:36;96416.63;;;9.92;81.69
21980;BME280;11154;48.558;9.234;2023-02-25T01:18:39;96420.69;;;9.88;80.75
21980;BME280;11154;48.558;9.234;2023-02-25T01:20:41;96421.22;;;9.84;80.44
21980;BME280;11154;48.558;9.234;2023-02-25T01:22:42;96419.75;;;9.81;79.73
21980;BME280;11154;48.558;9.234;2023-02-25T01:24:44;96425.25;;;9.80;79.44
21980;BME280;11154;48.558;9.234;2023-02-25T01:26:47;96419.50;;;9.76;79.30
21980;BME280;11154;48.558;9.234;2023-02-25T01:28:49;96423.97;;;9.76;79.49
21980;BME280;11154;48.558;9.234;2023-02-25T01:30:50;96427.66;;;9.75;79.31
21980;BME280;11154;48.558;9.234;2023-02-25T01:32:52;96444.38;;;9.75;79.99
21980;BME280;11154;48.558;9.234;2023-02-25T01:34:55;96449.34;;;9.78;79.96
21980;BME280;11154;48.558;9.234;2023-02-25T01:36:57;96440.34;;;9.79;79.76
21980;BME280;11154;48.558;9.234;2023-02-25T01:38:59;96440.34;;;9.79;79.84
21980;BME280;11154;48.558;9.234;2023-02-25T01:41:01;96445.97;;;9.84;79.96
21980;BME280;11154;48.558;9.234;2023-02-25T01:43:04;96444.97;;;9.85;79.97
21980;BME280;11154;48.558;9.234;2023-02-25T01:45:28;96440.47;;;9.86;79.88
21980;BME280;11154;48.558;9.234;2023-02-25T01:47:35;96427.38;;;9.84;79.84
21980;BME280;11154;48.558;9.234;2023-02-25T01:49:40;96425.72;;;9.83;80.48
21980;BME280;11154;48.558;9.234;2023-02-25T01:51:48;96433.50;;;9.85;81.15
21980;BME280;11154;48.558;9.234;2023-02-25T01:53:50;96426.00;;;9.88;81.12
21980;BME280;11154;48.558;9.234;2023-02-25T01:55:52;96421.69;;;9.87;81.39
21980;BME280;11154;48.558;9.234;2023-02-25T01:57:56;96425.00;;;9.89;81.71
21980;BME280;11154;48.558;9.234;2023-02-25T01:59:58;96433.59;;;9.91;81.39
21980;BME280;11154;48.558;9.234;2023-02-25T02:02:00;96395.44;;;8.31;88.36
21980;BME280;11154;48.558;9.234;2023-02-25T02:04:02;96401.66;;;7.77;93.06
21980;BME280;11154;48.558;9.234;2023-02-25T02:06:08;96399.44;;;7.50;96.43
21980;BME280;11154;48.558;9.234;2023-02-25T02:08:12;96411.69;;;7.35;98.53
21980;BME280;11154;48.558;9.234;2023-02-25T02:10:14;96403.44;;;7.30;99.87
21980;BME280;11154;48.558;9.234;2023-02-25T02:12:17;96411.88;;;7.26;100.00
21980;BME280;11154;48.558;9.234;2023-02-25T02:14:24;96414.56;;;7.18;100.00
21980;BME280;11154;48.558;9.234;2023-02-25T02:18:56;96406.81;;;7.09;100.00
21980;BME280;11154;48.558;9.234;2023-02-25T02:21:10;96419.34;;;7.15;100.00
21980;BME280;11154;48.558;9.234;2023-02-25T02:26:42;96430.59;;;7.09;100.00
21980;BME280;11154;48.558;9.234;2023-02-25T02:29:21;96423.47;;;7.01;100.00
21980;BME280;11154;48.558;9.234;2023-02-25T02:31:52;96421.50;;;7.03;100.00
21980;BME280;11154;48.558;9.234;2023-02-25T02:34:02;96410.94;;;7.03;100.00
21980;BME280;11154;48.558;9.234;2023-02-25T02:36:15;96404.00;;;7.02;100.00
21980;BME280;11154;48.558;9.234;2023-02-25T02:38:23;96401.03;;;6.97;100.00
21980;BME280;11154;48.558;9.234;2023-02-25T02:40:37;96399.06;;;6.99;100.00
21980;BME280;11154;48.558;9.234;2023-02-25T02:42:43;96400.84;;;6.99;100.00
21980;BME280;11154;48.558;9.234;2023-02-25T02:44:53;96404.34;;;6.99;100.00
21980;BME280;11154;48.558;9.234;2023-02-25T02:47:02;96398.06;;;6.92;100.00
21980;BME280;11154;48.558;9.234;2023-02-25T02:49:09;96410.63;;;6.90;100.00
21980;BME280;11154;48.558;9.234;2023-02-25T02:51:18;96405.31;;;6.90;100.00
21980;BME280;11154;48.558;9.234;2023-02-25T02:53:26;96402.50;;;6.92;100.00
21980;BME280;11154;48.558;9.234;2023-02-25T02:55:33;96411.59;;;6.89;100.00
21980;BME280;11154;48.558;9.234;2023-02-25T02:57:39;96417.56;;;6.91;100.00
21980;BME280;11154;48.558;9.234;2023-02-25T02:59:44;96414.25;;;6.89;100.00
21980;BME280;11154;48.558;9.234;2023-02-25T03:01:50;96423.66;;;6.92;100.00
21980;BME280;11154;48.558;9.234;2023-02-25T03:03:58;96432.25;;;6.94;100.00
21980;BME280;11154;48.558;9.234;2023-02-25T03:06:01;96433.06;;;6.94;100.00
21980;BME280;11154;48.558;9.234;2023-02-25T03:08:06;96430.28;;;6.96;100.00
21980;BME280;11154;48.558;9.234;2023-02-25T03:10:13;96436.06;;;6.99;100.00
21980;BME280;11154;48.558;9.234;2023-02-25T03:12:17;96437.03;;;6.90;100.00
21980;BME280;11154;48.558;9.234;2023-02-25T03:14:19;96426.47;;;6.90;100.00
21980;BME280;11154;48.558;9.234;2023-02-25T03:16:24;96429.13;;;6.98;100.00
21980;BME280;11154;48.558;9.234;2023-02-25T03:18:33;96435.38;;;7.05;100.00
21980;BME280;11154;48.558;9.234;2023-02-25T03:20:39;96436.19;;;6.98;100.00
21980;BME280;11154;48.558;9.234;2023-02-25T03:22:45;96429.13;;;6.98;100.00
21980;BME280;11154;48.558;9.234;2023-02-25T03:24:52;96438.69;;;6.91;100.00
21980;BME280;11154;48.558;9.234;2023-02-25T03:26:54;96451.91;;;6.99;100.00
21980;BME280;11154;48.558;9.234;2023-02-25T03:28:56;96443.63;;;6.94;100.00
21980;BME280;11154;48.558;9.234;2023-02-25T03:31:02;96441.47;;;6.90;100.00
21980;BME280;11154;48.558;9.234;2023-02-25T03:33:10;96436.38;;;6.96;100.00
21980;BME280;11154;48.558;9.234;2023-02-25T03:35:14;96444.28;;;6.96;100.00
21980;BME280;11154;48.558;9.234;2023-02-25T03:37:22;96434.69;;;6.87;100.00
21980;BME280;11154;48.558;9.234;2023-02-25T03:39:28;96444.94;;;6.82;100.00
21980;BME280;11154;48.558;9.234;2023-02-25T03:41:35;96436.03;;;6.75;100.00
21980;BME280;11154;48.558;9.234;2023-02-25T03:43:40;96442.28;;;6.74;100.00
21980;BME280;11154;48.558;9.234;2023-02-25T03:45:44;96441.78;;;6.71;100.00
21980;BME280;11154;48.558;9.234;2023-02-25T03:47:46;96440.66;;;6.73;100.00
21980;BME280;11154;48.558;9.234;2023-02-25T03:49:53;96444.31;;;6.72;100.00
21980;BME280;11154;48.558;9.234;2023-02-25T03:51:59;96441.66;;;6.72;100.00
21980;BME280;11154;48.558;9.234;2023-02-25T03:54:05;96446.91;;;6.64;99.02
21980;BME280;11154;48.558;9.234;2023-02-25T03:56:09;96447.09;;;6.63;98.28
21980;BME280;11154;48.558;9.234;2023-02-25T03:58:11;96444.97;;;6.66;98.50
21980;BME280;11154;48.558;9.234;2023-02-25T04:00:17;96482.59;;;6.76;99.47
21980;BME280;11154;48.558;9.234;2023-02-25T04:02:19;96491.31;;;7.64;96.06
21980;BME280;11154;48.558;9.234;2023-02-25T04:04:21;96489.84;;;8.08;92.18
21980;BME280;11154;48.558;9.234;2023-02-25T04:06:23;96491.22;;;8.42;88.69
21980;BME280;11154;48.558;9.234;2023-02-25T04:08:25;96500.00;;;8.65;85.58
21980;BME280;11154;48.558;9.234;2023-02-25T04:10:28;96497.56;;;8.86;85.25
21980;BME280;11154;48.558;9.234;2023-02-25T04:12:30;96494.16;;;9.00;83.49
21980;BME280;11154;48.558;9.234;2023-02-25T04:14:32;96501.69;;;9.11;82.24
21980;BME280;11154;48.558;9.234;2023-02-25T04:16:33;96498.81;;;9.20;81.00
21980;BME280;11154;48.558;9.234;2023-02-25T04:18:35;96506.88;;;9.27;80.37
21980;BME280;11154;48.558;9.234;2023-02-25T04:20:37;96507.19;;;9.32;80.24
21980;BME280;11154;48.558;9.234;2023-02-25T04:22:40;96504.47;;;9.39;80.08
21980;BME280;11154;48.558;9.234;2023-02-25T04:24:41;96509.19;;;9.44;79.62
21980;BME280;11154;48.558;9.234;2023-02-25T04:26:45;96512.63;;;9.52;79.41
21980;BME280;11154;48.558;9.234;2023-02-25T04:28:46;96510.44;;;9.56;79.18
21980;BME280;11154;48.558;9.234;2023-02-25T04:30:48;96503.97;;;9.58;78.05
21980;BME280;11154;48.558;9.234;2023-02-25T04:32:50;96504.41;;;9.62;78.03
21980;BME280;11154;48.558;9.234;2023-02-25T04:34:51;96502.56;;;9.62;78.74
21980;BME280;11154;48.558;9.234;2023-02-25T04:36:53;96502.56;;;9.62;77.36
21980;BME280;11154;48.558;9.234;2023-02-25T04:38:56;96505.41;;;9.61;76.77
21980;BME280;11154;48.558;9.234;2023-02-25T04:40:57;96508.41;;;9.58;76.64
21980;BME280;11154;48.558;9.234;2023-02-25T04:43:00;96500.66;;;9.56;76.14
21980;BME280;11154;48.558;9.234;2023-02-25T04:45:03;96495.53;;;9.55;75.03
21980;BME280;11154;48.558;9.234;2023-02-25T04:47:04;96497.00;;;9.57;75.96
21980;BME280;11154;48.558;9.234;2023-02-25T04:49:08;96492.34;;;9.59;76.02
21980;BME280;11154;48.558;9.234;2023-02-25T04:51:09;96489.03;;;9.57;75.46
21980;BME280;11154;48.558;9.234;2023-02-25T04:53:11;96489.38;;;9.54;75.28
21980;BME280;11154;48.558;9.234;2023-02-25T04:55:13;96500.00;;;9.54;75.89
21980;BME280;11154;48.558;9.234;2023-02-25T04:57:15;96500.19;;;9.53;75.25
21980;BME280;11154;48.558;9.234;2023-02-25T04:59:18;96503.41;;;9.63;80.37
21980;BME280;11154;48.558;9.234;2023-02-25T05:01:20;96506.88;;;9.63;80.44
21980;BME280;11154;48.558;9.234;2023-02-25T05:03:22;96508.84;;;9.47;76.65
21980;BME280;11154;48.558;9.234;2023-02-25T05:05:24;96519.53;;;9.39;77.11
21980;BME280;11154;48.558;9.234;2023-02-25T05:07:26;96526.41;;;9.33;78.98
21980;BME280;11154;48.558;9.234;2023-02-25T05:09:28;96521.25;;;9.32;78.68
21980;BME280;11154;48.558;9.234;2023-02-25T05:11:30;96522.09;;;9.32;78.67
21980;BME280;11154;48.558;9.234;2023-02-25T05:13:32;96519.97;;;9.28;75.54
21980;BME280;11154;48.558;9.234;2023-02-25T05:15:35;96512.19;;;9.27;75.03
21980;BME280;11154;48.558;9.234;2023-02-25T05:17:36;96523.63;;;9.27;73.74
21980;BME280;11154;48.558;9.234;2023-02-25T05:19:38;96515.31;;;9.30;74.00
21980;BME280;11154;48.558;9.234;2023-02-25T05:21:40;96527.41;;;9.32;74.08
21980;BME280;11154;48.558;9.234;2023-02-25T05:23:43;96521.72;;;9.35;72.23
21980;BME280;11154;48.558;9.234;2023-02-25T05:25:45;96520.06;;;9.34;71.42
21980;BME280;11154;48.558;9.234;2023-02-25T05:27:46;96525.38;;;9.34;71.22
21980;BME280;11154;48.558;9.234;2023-02-25T05:29:48;96521.25;;;9.32;69.75
21980;BME280;11154;48.558;9.234;2023-02-25T05:31:52;96525.38;;;9.34;70.62
21980;BME280;11154;48.558;9.234;2023-02-25T05:33:54;96523.75;;;9.33;69.43
21980;BME280;11154;48.558;9.234;2023-02-25T05:35:56;96509.44;;;9.34;68.29
21980;BME280;11154;48.558;9.234;2023-02-25T05:37:57;96512.47;;;9.32;67.50
21980;BME280;11154;48.558;9.234;2023-02-25T05:39:59;96517.78;;;9.32;68.35
21980;BME280;11154;48.558;9.234;2023-02-25T05:42:01;96522.28;;;9.31;68.00
21980;BME280;11154;48.558;9.234;2023-02-25T05:44:03;96522.09;;;9.32;66.57
21980;BME280;11154;48.558;9.234;2023-02-25T05:46:05;96534.50;;;9.32;66.39
21980;BME280;11154;48.558;9.234;2023-02-25T05:48:12;96536.34;;;9.32;66.28
21980;BME280;11154;48.558;9.234;2023-02-25T05:50:14;96531.53;;;9.35;68.07
21980;BME280;11154;48.558;9.234;2023-02-25T05:52:16;96524.75;;;9.32;69.66
21980;BME280;11154;48.558;9.234;2023-02-25T05:54:17;96527.25;;;9.26;67.55
21980;BME280;11154;48.558;9.234;2023-02-25T05:56:21;96531.47;;;9.21;67.07
21980;BME280;11154;48.558;9.234;2023-02-25T05:58:24;96538.09;;;9.17;66.74
21980;BME280;11154;48.558;9.234;2023-02-25T06:00:26;96542.13;;;9.13;66.89
21980;BME280;11154;48.558;9.234;2023-02-25T06:02:28;96546.16;;;9.09;66.37
21980;BME280;11154;48.558;9.234;2023-02-25T06:04:31;96547.78;;;9.10;66.30
21980;BME280;11154;48.558;9.234;2023-02-25T06:06:33;96549.13;;;9.06;64.39
21980;BME280;11154;48.558;9.234;2023-02-25T06:08:34;96545.66;;;9.05;67.33
21980;BME280;11154;48.558;9.234;2023-02-25T06:10:38;96544.81;;;9.05;67.50
21980;BME280;11154;48.558;9.234;2023-02-25T06:12:40;96546.97;;;9.09;67.20
21980;BME280;11154;48.558;9.234;2023-02-25T06:14:42;96546.97;;;9.09;67.69
21980;BME280;11154;48.558;9.234;2023-02-25T06:16:43;96546.16;;;9.09;66.47
21980;BME280;11154;48.558;9.234;2023-02-25T06:18:46;96547.44;;;9.13;67.71
21980;BME280;11154;48.558;9.234;2023-02-25T06:20:49;96550.28;;;9.11;66.17
21980;BME280;11154;48.558;9.234;2023-02-25T06:22:51;96552.91;;;9.11;66.04
21980;BME280;11154;48.558;9.234;2023-02-25T06:24:52;96566.19;;;9.11;66.81
21980;BME280;11154;48.558;9.234;2023-02-25T06:26:54;96556.56;;;9.10;66.14
21980;BME280;11154;48.558;9.234;2023-02-25T06:28:56;96572.94;;;9.14;67.13
21980;BME280;11154;48.558;9.234;2023-02-25T06:30:58;96576.22;;;9.16;66.49
21980;BME280;11154;48.558;9.234;2023-02-25T06:32:59;96569.94;;;9.17;66.48
21980;BME280;11154;48.558;9.234;2023-02-25T06:35:01;96585.84;;;9.17;67.24
21980;BME280;11154;48.558;9.234;2023-02-25T06:37:04;96580.53;;;9.17;68.11
21980;BME280;11154;48.558;9.234;2023-02-25T06:39:06;96588.50;;;9.17;68.84
21980;BME280;11154;48.558;9.234;2023-02-25T06:41:12;96577.59;;;9.12;69.20
21980;BME280;11154;48.558;9.234;2023-02-25T06:43:14;96585.91;;;9.09;69.31
21980;BME280;11154;48.558;9.234;2023-02-25T06:45:16;96590.56;;;9.07;69.44
21980;BME280;11154;48.558;9.234;2023-02-25T06:47:18;96593.03;;;9.08;69.20
21980;BME280;11154;48.558;9.234;2023-02-25T06:49:22;96586.25;;;9.06;68.43
21980;BME280;11154;48.558;9.234;2023-02-25T06:51:24;96579.94;;;9.07;69.06
21980;BME280;11154;48.558;9.234;2023-02-25T06:53:27;96579.47;;;9.03;69.49
21980;BME280;11154;48.558;9.234;2023-02-25T06:55:29;96583.31;;;9.01;69.92
21980;BME280;11154;48.558;9.234;2023-02-25T06:57:31;96591.25;;;9.01;70.29
21980;BME280;11154;48.558;9.234;2023-02-25T06:59:33;96588.13;;;8.97;70.56
21980;BME280;11154;48.558;9.234;2023-02-25T07:01:35;96594.91;;;9.00;69.73
21980;BME280;11154;48.558;9.234;2023-02-25T07:03:37;96594.91;;;9.00;69.47
21980;BME280;11154;48.558;9.234;2023-02-25T07:05:38;96587.75;;;9.00;69.33
21980;BME280;11154;48.558;9.234;2023-02-25T07:07:40;96583.31;;;9.01;70.54
21980;BME280;11154;48.558;9.234;2023-02-25T07:09:43;96579.50;;;9.26;69.44
21980;BME280;11154;48.558;9.234;2023-02-25T07:11:45;96583.66;;;9.20;68.65
21980;BME280;11154;48.558;9.234;2023-02-25T07:13:47;96583.56;;;9.14;68.66
21980;BME280;11154;48.558;9.234;2023-02-25T07:15:49;96588.72;;;9.07;68.70
21980;BME280;11154;48.558;9.234;2023-02-25T07:17:51;96599.50;;;9.06;68.83
21980;BME280;11154;48.558;9.234;2023-02-25T07:19:52;96603.16;;;9.05;68.54
21980;BME280;11154;48.558;9.234;2023-02-25T07:21:55;96608.28;;;9.06;68.19
21980;BME280;11154;48.558;9.234;2023-02-25T07:23:57;96605.31;;;9.01;68.20
21980;BME280;11154;48.558;9.234;2023-02-25T07:26:03;96610.44;;;9.03;69.42
21980;BME280;11154;48.558;9.234;2023-02-25T07:28:05;96610.81;;;9.00;69.26
21980;BME280;11154;48.558;9.234;2023-02-25T07:30:09;96609.16;;;8.99;70.20
21980;BME280;11154;48.558;9.234;2023-02-25T07:32:12;96612.31;;;8.94;71.56
21980;BME280;11154;48.558;9.234;2023-02-25T07:34:17;96610.50;;;8.95;72.46
21980;BME280;11154;48.558;9.234;2023-02-25T07:36:19;96610.66;;;8.93;73.17
21980;BME280;11154;48.558;9.234;2023-02-25T07:38:20;96614.16;;;8.94;74.04
21980;BME280;11154;48.558;9.234;2023-02-25T07:40:22;96610.66;;;8.93;73.55
21980;BME280;11154;48.558;9.234;2023-02-25T07:42:25;96613.16;;;8.95;74.20
21980;BME280;11154;48.558;9.234;2023-02-25T07:44:27;96612.81;;;8.98;73.04
21980;BME280;11154;48.558;9.234;2023-02-25T07:46:29;96605.50;;;9.00;73.02
21980;BME280;11154;48.558;9.234;2023-02-25T07:48:31;96607.47;;;9.06;72.60
21980;BME280;11154;48.558;9.234;2023-02-25T07:50:33;96609.41;;;9.12;72.83
21980;BME280;11154;48.558;9.234;2023-02-25T07:52:35;96607.06;;;9.17;71.70
21980;BME280;11154;48.558;9.234;2023-02-25T07:54:37;96603.06;;;9.21;69.66
21980;BME280;11154;48.558;9.234;2023-02-25T07:56:39;96602.53;;;9.25;70.07
21980;BME280;11154;48.558;9.234;2023-02-25T07:58:42;96586.09;;;9.30;69.93
21980;BME280;11154;48.558;9.234;2023-02-25T08:00:44;96587.75;;;9.31;70.47
21980;BME280;11154;48.558;9.234;2023-02-25T08:02:46;96594.72;;;9.32;70.04
21980;BME280;11154;48.558;9.234;2023-02-25T08:04:48;96586.38;;;9.34;70.88
21980;BME280;11154;48.558;9.234;2023-02-25T08:06:49;96588.03;;;9.35;69.40
21980;BME280;11154;48.558;9.234;2023-02-25T08:08:52;96592.34;;;9.36;68.83
21980;BME280;11154;48.558;9.234;2023-02-25T08:10:54;96596.66;;;9.37;68.87
21980;BME280;11154;48.558;9.234;2023-02-25T08:12:56;96588.34;;;9.40;68.71
21980;BME280;11154;48.558;9.234;2023-02-25T08:14:59;96587.97;;;9.43;68.77
21980;BME280;11154;48.558;9.234;2023-02-25T08:17:01;96586.47;;;9.49;68.05
21980;BME280;11154;48.558;9.234;2023-02-25T08:19:03;96592.06;;;9.54;67.01
21980;BME280;11154;48.558;9.234;2023-02-25T08:21:06;96596.84;;;9.58;65.12
21980;BME280;11154;48.558;9.234;2023-02-25T08:23:08;96584.66;;;9.64;65.60
21980;BME280;11154;48.558;9.234;2023-02-25T08:25:09;96584.31;;;9.67;62.58
21980;BME280;11154;48.558;9.234;2023-02-25T08:27:11;96581.75;;;9.73;62.60
21980;BME280;11154;48.558;9.234;2023-02-25T08:29:13;96584.88;;;9.77;61.40
21980;BME280;11154;48.558;9.234;2023-02-25T08:31:17;96588.31;;;9.85;59.51
21980;BME280;11154;48.558;9.234;2023-02-25T08:33:19;96587.13;;;9.88;59.69
21980;BME280;11154;48.558;9.234;2023-02-25T08:35:21;96591.41;;;9.89;57.64
21980;BME280;11154;48.558;9.234;2023-02-25T08:37:24;96591.25;;;9.90;57.57
21980;BME280;11154;48.558;9.234;2023-02-25T08:39:26;96587.28;;;9.86;52.30
21980;BME280;11154;48.558;9.234;2023-02-25T08:41:28;96598.56;;;9.88;52.34
21980;BME280;11154;48.558;9.234;2023-02-25T08:43:31;96599.75;;;9.86;53.19
21980;BME280;11154;48.558;9.234;2023-02-25T08:45:33;96603.41;;;9.85;54.21
21980;BME280;11154;48.558;9.234;2023-02-25T08:47:38;96597.75;;;9.88;55.53
21980;BME280;11154;48.558;9.234;2023-02-25T08:49:40;96602.50;;;9.92;55.87
21980;BME280;11154;48.558;9.234;2023-02-25T08:51:41;96595.69;;;9.98;56.47
21980;BME280;11154;48.558;9.234;2023-02-25T08:53:43;96601.47;;;10.01;55.50
21980;BME280;11154;48.558;9.234;2023-02-25T08:55:45;96600.81;;;9.99;55.57
21980;BME280;11154;48.558;9.234;2023-02-25T08:57:47;96614.16;;;9.91;52.56
21980;BME280;11154;48.558;9.234;2023-02-25T08:59:49;96605.16;;;9.92;51.28
21980;BME280;11154;48.558;9.234;2023-02-25T09:01:51;96604.16;;;9.93;52.11
21980;BME280;11154;48.558;9.234;2023-02-25T09:03:55;96603.53;;;9.91;51.58
21980;BME280;11154;48.558;9.234;2023-02-25T09:05:57;96607.47;;;9.95;51.37
21980;BME280;11154;48.558;9.234;2023-02-25T09:07:59;96596.97;;;10.02;53.00
21980;BME280;11154;48.558;9.234;2023-02-25T09:10:01;96598.09;;;10.07;53.45
21980;BME280;11154;48.558;9.234;2023-02-25T09:12:06;96586.47;;;10.08;52.24
21980;BME280;11154;48.558;9.234;2023-02-25T09:14:07;96596.69;;;10.11;53.77
21980;BME280;11154;48.558;9.234;2023-02-25T09:16:10;96595.69;;;10.12;54.72
21980;BME280;11154;48.558;9.234;2023-02-25T09:18:16;96609.63;;;10.14;56.48
21980;BME280;11154;48.558;9.234;2023-02-25T09:20:19;96603.34;;;10.29;57.30
21980;BME280;11154;48.558;9.234;2023-02-25T09:22:25;96606.38;;;10.41;55.17
21980;BME280;11154;48.558;9.234;2023-02-25T09:24:27;96602.97;;;10.32;53.15
21980;BME280;11154;48.558;9.234;2023-02-25T09:26:29;96603.88;;;10.25;53.14
21980;BME280;11154;48.558;9.234;2023-02-25T09:28:31;96610.38;;;10.22;55.13
21980;BME280;11154;48.558;9.234;2023-02-25T09:30:33;96608.09;;;10.19;53.99
21980;BME280;11154;48.558;9.234;2023-02-25T09:32:34;96615.28;;;10.11;54.59
21980;BME280;11154;48.558;9.234;2023-02-25T09:34:38;96619.72;;;10.04;54.90
21980;BME280;11154;48.558;9.234;2023-02-25T09:36:41;96604.13;;;10.01;55.22
21980;BME280;11154;48.558;9.234;2023-02-25T09:38:44;96601.66;;;10.00;54.35
21980;BME280;11154;48.558;9.234;2023-02-25T09:40:47;96598.50;;;9.96;52.45
21980;BME280;11154;48.558;9.234;2023-02-25T09:42:56;96599.16;;;9.98;51.58
21980;BME280;11154;48.558;9.234;2023-02-25T09:45:00;96598.47;;;10.04;52.63
21980;BME280;11154;48.558;9.234;2023-02-25T09:47:07;96602.59;;;10.07;53.77
21980;BME280;11154;48.558;9.234;2023-02-25T09:49:17;96602.13;;;10.03;52.82
21980;BME280;11154;48.558;9.234;2023-02-25T09:51:22;96597.09;;;10.08;51.97
21980;BME280;11154;48.558;9.234;2023-02-25T09:53:31;96599.34;;;10.11;51.91
21980;BME280;11154;48.558;9.234;2023-02-25T09:55:36;96590.69;;;10.17;51.87
21980;BME280;11154;48.558;9.234;2023-02-25T09:57:39;96596.28;;;10.22;52.48
21980;BME280;11154;48.558;9.234;2023-02-25T09:59:41;96585.19;;;10.18;51.84
21980;BME280;11154;48.558;9.234;2023-02-25T10:01:46;96584.81;;;10.21;52.10
21980;BME280;11154;48.558;9.234;2023-02-25T10:03:54;96590.25;;;10.28;52.69
21980;BME280;11154;48.558;9.234;2023-02-25T10:06:01;96586.66;;;10.35;51.55
21980;BME280;11154;48.558;9.234;2023-02-25T10:08:09;96574.03;;;10.37;52.21
21980;BME280;11154;48.558;9.234;2023-02-25T10:10:18;96578.97;;;10.40;50.98
21980;BME280;11154;48.558;9.234;2023-02-25T10:12:28;96579.81;;;10.41;49.91
21980;BME280;11154;48.558;9.234;2023-02-25T10:14:49;96579.25;;;11.09;50.25
21980;BME280;11154;48.558;9.234;2023-02-25T10:17:00;96569.66;;;11.29;48.60
21980;BME280;11154;48.558;9.234;2023-02-25T10:19:14;96571.53;;;11.14;44.63
21980;BME280;11154;48.558;9.234;2023-02-25T10:21:24;96568.66;;;10.95;45.26
21980;BME280;11154;48.558;9.234;2023-02-25T10:23:48;96567.34;;;10.91;47.27
21980;BME280;11154;48.558;9.234;2023-02-25T10:26:03;96564.88;;;10.89;47.39
21980;BME280;11154;48.558;9.234;2023-02-25T10:28:12;96552.59;;;10.88;48.90
21980;BME280;11154;48.558;9.234;2023-02-25T10:30:18;96566.03;;;10.80;44.53
21980;BME280;11154;48.558;9.234;2023-02-25T10:32:25;96569.41;;;10.75;44.88
21980;BME280;11154;48.558;9.234;2023-02-25T10:34:28;96568.69;;;10.80;52.09
21980;BME280;11154;48.558;9.234;2023-02-25T10:36:35;96570.69;;;10.78;48.80
21980;BME280;11154;48.558;9.234;2023-02-25T10:38:42;96557.50;;;10.71;47.76
21980;BME280;11154;48.558;9.234;2023-02-25T10:40:44;96570.34;;;10.67;46.00
21980;BME280;11154;48.558;9.234;2023-02-25T10:42:49;96573.28;;;10.58;45.35
21980;BME280;11154;48.558;9.234;2023-02-25T10:44:51;96573.94;;;10.45;43.59
21980;BME280;11154;48.558;9.234;2023-02-25T10:46:58;96566.97;;;10.44;44.40
21980;BME280;11154;48.558;9.234;2023-02-25T10:49:02;96568.44;;;10.47;45.82
21980;BME280;11154;48.558;9.234;2023-02-25T10:51:15;96557.69;;;10.40;43.78
21980;BME280;11154;48.558;9.234;2023-02-25T10:53:17;96565.13;;;10.45;45.19
21980;BME280;11154;48.558;9.234;2023-02-25T10:55:29;96555.34;;;10.45;43.60
21980;BME280;11154;48.558;9.234;2023-02-25T10:57:39;96546.34;;;10.46;42.95
21980;BME280;11154;48.558;9.234;2023-02-25T10:59:44;96549.44;;;10.50;44.02
21980;BME280;11154;48.558;9.234;2023-02-25T11:01:46;96551.19;;;10.57;43.50
21980;BME280;11154;48.558;9.234;2023-02-25T11:03:53;96548.63;;;10.64;45.42
21980;BME280;11154;48.558;9.234;2023-02-25T11:06:16;96542.56;;;10.70;42.76
21980;BME280;11154;48.558;9.234;2023-02-25T11:08:26;96542.94;;;10.67;42.47